Time;durP1;ratioP1;P1;durP2;ratioP2;P2;SDS_P1;SDS_P2;PMS_P1;PMS_P2;Temp;Humidity;BMP_temperature;BMP_pressure;BME280_temperature;BME280_humidity;BME280_pressure;Samples;Min_cycle;Max_cycle;Signal;HPM_P1;HPM_P2
2021/12/21 00:01:31;;;;;;;;;;;0.80;99.90;;;;;;5076316;28;19971;-84
2021/12/21 00:03:57;;;;;;;;;;;0.80;99.90;;;;;;5077578;28;19912;-84
2021/12/21 00:06:22;;;;;;;;;;;0.80;99.90;;;;;;5085399;28;20312;-84
2021/12/21 00:08:48;;;;;;;;;;;0.70;99.90;;;;;;5069567;28;19913;-84
2021/12/21 00:11:14;;;;;;;;;;;0.70;49.80;;;;;;5076164;28;19913;-83
2021/12/21 00:14:12;;;;;;;;;;;0.70;57.40;;;;;;5074143;28;20425;-83
2021/12/21 00:21:35;;;;;;;;;;;0.60;1.00;;;;;;5075637;28;19966;-83
2021/12/21 00:24:10;;;;;;;;;;;0.60;73.90;;;;;;5067455;28;20003;-84
2021/12/21 00:26:36;;;;;;;;;;;0.60;98.90;;;;;;5066891;28;19916;-83
2021/12/21 00:29:03;;;;;;;;;;;0.50;99.90;;;;;;5093459;28;19913;-83
2021/12/21 00:31:32;;;;;;;;;;;0.40;99.90;;;;;;5083189;28;19935;-83
2021/12/21 00:33:58;;;;;;;;;;;0.40;1.00;;;;;;5070822;28;20046;-84
2021/12/21 00:36:25;;;;;;;;;;;0.40;1.00;;;;;;5042897;28;19924;-83
2021/12/21 00:38:52;;;;;;;;;;;0.30;1.00;;;;;;5071393;28;19912;-83
2021/12/21 00:41:18;;;;;;;;;;;0.30;99.90;;;;;;5076336;28;19948;-82
2021/12/21 00:43:43;;;;;;;;;;;0.30;1.00;;;;;;5072716;28;19935;-84
2021/12/21 00:46:09;;;;;;;;;;;0.30;6.70;;;;;;5075518;28;19924;-83
2021/12/21 00:48:36;;;;;;;;;;;0.20;1.00;;;;;;5074780;28;19919;-83
2021/12/21 00:51:03;;;;;;;;;;;0.20;1.00;;;;;;5067826;28;20003;-83
2021/12/21 00:53:29;;;;;;;;;;;0.20;1.00;;;;;;5068415;28;20502;-83
2021/12/21 00:55:55;;;;;;;;;;;0.30;1.00;;;;;;5066792;28;19917;-83
2021/12/21 00:58:20;;;;;;;;;;;0.20;1.00;;;;;;5092788;28;19913;-84
2021/12/21 01:00:46;;;;;;;;;;;0.20;1.00;;;;;;5065180;28;20403;-84
2021/12/21 01:03:14;;;;;;;;;;;0.20;99.90;;;;;;5080586;28;20258;-84
2021/12/21 01:08:28;;;;;;;;;;;0.10;99.90;;;;;;5082341;28;20422;-84
2021/12/21 01:11:07;;;;;;;;;;;0.20;99.90;;;;;;5070558;28;20011;-84
2021/12/21 01:19:05;;;;;;;;;;;0.20;99.90;;;;;;5076157;28;19943;-83
2021/12/21 01:21:37;;;;;;;;;;;0.20;58.50;;;;;;5081404;28;19926;-83
2021/12/21 01:27:04;;;;;;;;;;;0.20;1.00;;;;;;5070347;28;20426;-84
2021/12/21 01:29:44;;;;;;;;;;;0.30;1.00;;;;;;5077841;28;19913;-84
2021/12/21 01:35:13;;;;;;;;;;;0.20;1.00;;;;;;4989011;28;19921;-84
2021/12/21 01:37:55;;;;;;;;;;;0.20;1.00;;;;;;5082485;28;19916;-84
2021/12/21 01:41:09;;;;;;;;;;;0.20;1.00;;;;;;5070176;28;19973;-83
2021/12/21 01:51:07;;;;;;;;;;;0.00;1.00;;;;;;5071540;28;19927;-83
2021/12/21 01:53:32;;;;;;;;;;;0.00;1.00;;;;;;5070528;28;20380;-83
2021/12/21 01:55:58;;;;;;;;;;;-0.10;55.60;;;;;;5067873;28;19917;-83
2021/12/21 01:58:23;;;;;;;;;;;0.00;13.20;;;;;;5076689;28;19912;-83
2021/12/21 02:00:50;;;;;;;;;;;-0.10;1.00;;;;;;5058645;28;19927;-83
2021/12/21 02:03:15;;;;;;;;;;;0.00;1.00;;;;;;5069052;28;19931;-83
2021/12/21 02:05:41;;;;;;;;;;;-0.10;99.90;;;;;;5071805;28;19912;-83
2021/12/21 02:08:06;;;;;;;;;;;-0.10;99.90;;;;;;5077214;28;19916;-83
2021/12/21 02:10:33;;;;;;;;;;;-0.10;1.00;;;;;;5074184;28;19923;-83
2021/12/21 02:12:58;;;;;;;;;;;-0.10;1.00;;;;;;5076134;28;19912;-83
2021/12/21 02:15:25;;;;;;;;;;;-0.10;1.00;;;;;;5066386;28;19919;-83
2021/12/21 02:20:26;;;;;;;;;;;-0.20;99.90;;;;;;5067301;28;19952;-83
2021/12/21 02:30:54;;;;;;;;;;;-0.40;1.00;;;;;;5080428;28;20351;-83
2021/12/21 02:33:20;;;;;;;;;;;-0.30;1.00;;;;;;5075196;28;19952;-84
2021/12/21 02:35:46;;;;;;;;;;;-0.30;1.00;;;;;;5068334;28;19912;-83
2021/12/21 02:38:11;;;;;;;;;;;-0.30;1.00;;;;;;5076432;28;19919;-83
2021/12/21 02:40:37;;;;;;;;;;;-0.30;1.00;;;;;;5078589;28;19912;-83
2021/12/21 02:43:03;;;;;;;;;;;-0.30;1.00;;;;;;5076923;28;19913;-83
2021/12/21 02:45:29;;;;;;;;;;;-0.30;1.00;;;;;;5073528;28;19917;-84
2021/12/21 02:47:54;;;;;;;;;;;-0.30;1.00;;;;;;5076492;28;19919;-83
2021/12/21 02:50:20;;;;;;;;;;;-0.30;1.00;;;;;;5070580;28;19913;-84
2021/12/21 02:52:46;;;;;;;;;;;-0.30;99.90;;;;;;5075669;28;19913;-84
2021/12/21 02:55:12;;;;;;;;;;;-0.30;99.90;;;;;;5069885;28;19916;-83
2021/12/21 02:57:37;;;;;;;;;;;-0.30;99.90;;;;;;5069694;28;19919;-84
2021/12/21 03:00:04;;;;;;;;;;;-0.30;99.90;;;;;;5068252;28;19909;-83
2021/12/21 03:02:31;;;;;;;;;;;-0.40;99.90;;;;;;5093964;28;20016;-83
2021/12/21 03:04:56;;;;;;;;;;;-0.40;99.90;;;;;;5076814;28;19909;-83
2021/12/21 03:10:02;;;;;;;;;;;-0.40;99.90;;;;;;5072820;28;19913;-83
2021/12/21 03:14:54;;;;;;;;;;;-0.40;97.30;;;;;;5064750;28;20065;-83
2021/12/21 03:17:20;;;;;;;;;;;-0.40;1.00;;;;;;5070896;28;20078;-82
2021/12/21 03:19:45;;;;;;;;;;;-0.40;1.00;;;;;;5074787;28;19913;-83
2021/12/21 03:22:12;;;;;;;;;;;-0.40;1.00;;;;;;5045381;28;20609;-83
2021/12/21 03:24:38;;;;;;;;;;;-0.40;1.00;;;;;;5049484;28;20281;-83
2021/12/21 03:27:04;;;;;;;;;;;-0.40;1.00;;;;;;5064318;28;20436;-83
2021/12/21 03:29:30;;;;;;;;;;;-0.40;1.00;;;;;;5057254;28;19955;-83
2021/12/21 03:31:55;;;;;;;;;;;-0.40;1.00;;;;;;5063501;28;19924;-83
2021/12/21 03:34:21;;;;;;;;;;;-0.50;99.90;;;;;;5073511;28;20430;-83
2021/12/21 03:36:46;;;;;;;;;;;-0.50;99.90;;;;;;5047883;28;19917;-83
2021/12/21 03:39:18;;;;;;;;;;;-0.60;99.90;;;;;;5071769;28;20012;-83
2021/12/21 03:41:47;;;;;;;;;;;-0.60;1.00;;;;;;5063142;28;19912;-83
2021/12/21 03:44:13;;;;;;;;;;;-0.60;1.00;;;;;;5072732;28;20300;-83
2021/12/21 03:46:46;;;;;;;;;;;-0.60;24.80;;;;;;5071470;28;19919;-83
2021/12/21 03:49:51;;;;;;;;;;;-0.60;99.90;;;;;;5071220;28;20376;-83
2021/12/21 03:52:08;;;;;;;;;;;-0.70;99.90;;;;;;5075088;28;19923;-83
2021/12/21 03:54:34;;;;;;;;;;;-0.70;99.90;;;;;;5071688;28;19912;-84
2021/12/21 03:57:00;;;;;;;;;;;-0.70;99.90;;;;;;5080580;28;19923;-84
2021/12/21 03:59:26;;;;;;;;;;;-0.70;99.90;;;;;;5080696;28;19913;-83
2021/12/21 04:01:52;;;;;;;;;;;-0.80;99.90;;;;;;5072447;28;19913;-83
2021/12/21 04:04:18;;;;;;;;;;;-0.80;1.00;;;;;;5070862;28;19913;-84
2021/12/21 04:06:44;;;;;;;;;;;-0.80;1.00;;;;;;5073439;28;19983;-83
2021/12/21 04:09:09;;;;;;;;;;;-0.80;1.00;;;;;;5079816;28;20442;-83
2021/12/21 04:11:35;;;;;;;;;;;-0.80;1.00;;;;;;5079953;28;20261;-84
2021/12/21 04:14:01;;;;;;;;;;;-0.80;1.00;;;;;;5082823;28;19970;-84
2021/12/21 04:16:27;;;;;;;;;;;-0.80;1.00;;;;;;5099105;28;20380;-83
2021/12/21 04:18:52;;;;;;;;;;;-0.80;1.00;;;;;;5089026;28;19995;-85
2021/12/21 04:21:18;;;;;;;;;;;-0.80;1.00;;;;;;5075944;28;19909;-84
2021/12/21 04:23:44;;;;;;;;;;;-0.80;1.00;;;;;;5058112;28;19920;-84
2021/12/21 04:26:10;;;;;;;;;;;-0.80;99.90;;;;;;5094825;28;19940;-85
2021/12/21 04:28:36;;;;;;;;;;;-0.80;99.90;;;;;;5079804;28;19923;-85
2021/12/21 04:31:02;;;;;;;;;;;-0.80;99.90;;;;;;5080054;28;19940;-85
2021/12/21 04:33:27;;;;;;;;;;;-0.80;99.90;;;;;;5079286;28;19978;-85
2021/12/21 04:35:53;;;;;;;;;;;-0.80;99.90;;;;;;5079891;28;20278;-86
2021/12/21 04:38:21;;;;;;;;;;;-0.80;99.90;;;;;;5081722;28;19923;-84
2021/12/21 04:40:50;;;;;;;;;;;-0.80;99.90;;;;;;5080443;28;19940;-85
2021/12/21 04:43:15;;;;;;;;;;;-0.80;99.90;;;;;;5067538;28;19952;-85
2021/12/21 04:45:41;;;;;;;;;;;-0.80;99.90;;;;;;5074708;28;19920;-85
2021/12/21 04:48:06;;;;;;;;;;;-0.80;99.90;;;;;;5079580;28;19915;-84
2021/12/21 04:50:32;;;;;;;;;;;-0.80;99.90;;;;;;5073179;28;19920;-84
2021/12/21 04:52:58;;;;;;;;;;;-0.90;63.90;;;;;;5071808;28;20395;-84
2021/12/21 04:55:23;;;;;;;;;;;-0.90;1.00;;;;;;5082028;28;20369;-85
2021/12/21 04:57:49;;;;;;;;;;;-0.90;1.00;;;;;;5076127;28;19942;-84
2021/12/21 05:00:14;;;;;;;;;;;-0.90;1.00;;;;;;5108490;28;20376;-85
2021/12/21 05:02:40;;;;;;;;;;;-0.90;1.00;;;;;;5078584;28;19939;-85
2021/12/21 05:05:06;;;;;;;;;;;-0.90;99.90;;;;;;5069429;28;19925;-85
2021/12/21 05:07:34;;;;;;;;;;;-0.90;99.90;;;;;;5074345;28;19919;-85
2021/12/21 05:10:01;;;;;;;;;;;-0.90;99.90;;;;;;5078898;28;19917;-84
2021/12/21 05:12:27;;;;;;;;;;;-0.90;1.00;;;;;;5073055;28;20003;-85
2021/12/21 05:14:53;;;;;;;;;;;-0.90;1.00;;;;;;5075588;28;20409;-85
2021/12/21 05:17:18;;;;;;;;;;;-0.90;1.00;;;;;;5079712;28;19984;-85
2021/12/21 05:19:44;;;;;;;;;;;-0.90;1.00;;;;;;5070190;28;20003;-84
2021/12/21 05:22:10;;;;;;;;;;;-0.90;1.00;;;;;;5077843;28;20398;-85
2021/12/21 05:24:35;;;;;;;;;;;-0.90;99.90;;;;;;5071143;28;20355;-85
2021/12/21 05:27:00;;;;;;;;;;;-1.00;99.90;;;;;;5084279;28;19920;-85
2021/12/21 05:29:26;;;;;;;;;;;-1.00;99.90;;;;;;5082040;28;19908;-86
2021/12/21 05:31:52;;;;;;;;;;;-1.10;99.90;;;;;;5082701;28;19999;-85
2021/12/21 05:34:18;;;;;;;;;;;-1.10;1.00;;;;;;5073264;28;19916;-85
2021/12/21 05:36:44;;;;;;;;;;;-1.20;99.90;;;;;;5082399;28;20003;-85
2021/12/21 05:39:20;;;;;;;;;;;-1.20;1.00;;;;;;5073338;28;20011;-84
2021/12/21 05:41:50;;;;;;;;;;;-1.20;1.00;;;;;;5073929;28;20007;-85
2021/12/21 05:44:15;;;;;;;;;;;-1.20;1.00;;;;;;5079931;28;19918;-85
2021/12/21 05:46:41;;;;;;;;;;;-1.20;1.00;;;;;;5074235;28;20293;-85
2021/12/21 05:49:06;;;;;;;;;;;-1.20;1.00;;;;;;5079124;28;20367;-85
2021/12/21 05:51:32;;;;;;;;;;;-1.20;1.00;;;;;;5074571;28;19974;-86
2021/12/21 05:53:57;;;;;;;;;;;-1.20;99.90;;;;;;5076596;28;19920;-85
2021/12/21 05:56:23;;;;;;;;;;;-1.30;99.90;;;;;;5069154;28;19917;-85
2021/12/21 05:58:48;;;;;;;;;;;-1.20;1.00;;;;;;5077523;28;19968;-85
2021/12/21 06:01:14;;;;;;;;;;;-1.20;1.00;;;;;;5078717;28;19966;-85
2021/12/21 06:03:39;;;;;;;;;;;-1.20;1.00;;;;;;5075018;28;19920;-85
2021/12/21 06:06:11;;;;;;;;;;;-1.20;1.00;;;;;;5081827;28;19939;-85
2021/12/21 06:08:36;;;;;;;;;;;-1.20;1.00;;;;;;5073510;28;19912;-84
2021/12/21 06:11:05;;;;;;;;;;;-1.20;1.00;;;;;;5078506;28;19954;-85
2021/12/21 06:26:44;;;;;;;;;;;-1.20;1.00;;;;;;5077989;28;19951;-85
2021/12/21 06:29:09;;;;;;;;;;;-1.20;1.00;;;;;;5078673;28;19913;-85
2021/12/21 06:31:35;;;;;;;;;;;-1.30;99.90;;;;;;5078755;28;19961;-85
2021/12/21 06:34:00;;;;;;;;;;;-1.30;99.90;;;;;;5061664;28;20049;-85
2021/12/21 06:36:26;;;;;;;;;;;-1.30;99.90;;;;;;5070562;28;20399;-86
2021/12/21 06:38:51;;;;;;;;;;;-1.30;99.90;;;;;;5076841;28;19924;-85
2021/12/21 06:41:17;;;;;;;;;;;-1.30;99.90;;;;;;5073349;28;20319;-85
2021/12/21 06:43:43;;;;;;;;;;;-1.40;1.00;;;;;;5068632;28;19999;-85
2021/12/21 06:46:42;;;;;;;;;;;-1.40;1.00;;;;;;5068230;28;19935;-85
2021/12/21 06:51:51;;;;;;;;;;;-1.40;1.00;;;;;;5072229;28;19935;-85
2021/12/21 06:54:17;;;;;;;;;;;-1.40;1.00;;;;;;5068392;28;19918;-86
2021/12/21 06:56:42;;;;;;;;;;;-1.40;1.00;;;;;;5070275;28;19939;-86
2021/12/21 06:59:08;;;;;;;;;;;-1.40;1.00;;;;;;5080005;28;19955;-85
2021/12/21 07:01:42;;;;;;;;;;;-1.40;1.00;;;;;;5077715;28;19923;-86
2021/12/21 07:04:09;;;;;;;;;;;-1.40;1.00;;;;;;5080017;28;19912;-85
2021/12/21 07:06:35;;;;;;;;;;;-1.40;1.00;;;;;;5074539;28;20014;-86
2021/12/21 07:09:08;;;;;;;;;;;-1.30;1.00;;;;;;5080135;28;19913;-86
2021/12/21 07:19:28;;;;;;;;;;;-1.00;1.00;;;;;;5084184;28;19962;-85
2021/12/21 07:21:53;;;;;;;;;;;-1.00;1.00;;;;;;5080529;28;19912;-86
2021/12/21 07:24:19;;;;;;;;;;;-1.00;99.90;;;;;;5081884;28;19913;-86
2021/12/21 07:26:44;;;;;;;;;;;-1.00;99.90;;;;;;5079874;28;19968;-85
2021/12/21 07:29:10;;;;;;;;;;;-0.90;99.90;;;;;;5060935;28;20501;-85
2021/12/21 07:31:36;;;;;;;;;;;-0.90;1.00;;;;;;5076382;28;19912;-86
2021/12/21 07:34:02;;;;;;;;;;;-0.90;1.00;;;;;;5072411;28;20548;-87
2021/12/21 07:36:30;;;;;;;;;;;-0.80;1.00;;;;;;5076441;28;19921;-86
2021/12/21 07:38:56;;;;;;;;;;;-0.80;99.90;;;;;;5070638;28;20076;-88
2021/12/21 07:41:21;;;;;;;;;;;-0.80;99.90;;;;;;5074577;28;19981;-86
2021/12/21 07:43:47;;;;;;;;;;;-0.80;71.00;;;;;;5080664;28;19912;-86
2021/12/21 07:46:12;;;;;;;;;;;-0.80;1.00;;;;;;5075071;28;19981;-87
2021/12/21 07:48:39;;;;;;;;;;;-0.70;1.00;;;;;;5077093;28;20447;-86
2021/12/21 07:51:06;;;;;;;;;;;-0.70;1.00;;;;;;5077086;28;19912;-86
2021/12/21 07:53:31;;;;;;;;;;;-0.70;99.90;;;;;;5074636;28;19913;-86
2021/12/21 07:56:01;;;;;;;;;;;-0.70;99.90;;;;;;5076569;28;19913;-87
2021/12/21 07:58:29;;;;;;;;;;;-0.70;99.90;;;;;;5082652;28;19908;-86
2021/12/21 08:00:55;;;;;;;;;;;-0.70;99.90;;;;;;5074718;28;19912;-85
2021/12/21 08:03:21;;;;;;;;;;;-0.60;12.50;;;;;;5076792;28;19913;-86
2021/12/21 08:05:49;;;;;;;;;;;-0.60;1.00;;;;;;5074957;28;19913;-86
2021/12/21 08:08:19;;;;;;;;;;;-0.50;1.00;;;;;;5093023;28;20479;-86
2021/12/21 08:10:49;;;;;;;;;;;-0.50;1.00;;;;;;5069617;28;19913;-84
2021/12/21 08:13:15;;;;;;;;;;;-0.40;1.00;;;;;;5076161;28;19912;-85
2021/12/21 08:15:40;;;;;;;;;;;-0.30;1.00;;;;;;5053548;28;19917;-85
2021/12/21 08:18:06;;;;;;;;;;;-0.30;99.90;;;;;;5075432;28;19925;-85
2021/12/21 08:20:31;;;;;;;;;;;0.00;1.00;;;;;;5077036;28;19920;-85
2021/12/21 08:22:57;;;;;;;;;;;0.60;1.00;;;;;;5075979;28;19912;-85
2021/12/21 08:25:25;;;;;;;;;;;2.00;99.90;;;;;;5076405;28;19944;-86
2021/12/21 08:27:54;;;;;;;;;;;3.40;99.90;;;;;;5073456;28;19920;-86
2021/12/21 08:30:19;;;;;;;;;;;4.20;99.90;;;;;;5073654;28;19999;-85
2021/12/21 08:32:45;;;;;;;;;;;4.60;1.00;;;;;;5080480;28;19913;-86
2021/12/21 08:35:13;;;;;;;;;;;4.60;1.00;;;;;;5076086;28;19912;-85
2021/12/21 08:37:39;;;;;;;;;;;4.40;1.00;;;;;;5071736;28;19917;-86
2021/12/21 08:40:07;;;;;;;;;;;4.00;1.00;;;;;;5074202;28;19913;-84
2021/12/21 08:42:33;;;;;;;;;;;3.60;1.00;;;;;;5068793;28;19928;-86
2021/12/21 08:45:01;;;;;;;;;;;3.30;1.00;;;;;;5060800;28;19927;-86
2021/12/21 08:47:28;;;;;;;;;;;3.00;1.00;;;;;;5075004;28;19934;-86
2021/12/21 08:49:53;;;;;;;;;;;2.60;1.00;;;;;;5061879;28;19916;-86
2021/12/21 08:52:19;;;;;;;;;;;2.40;1.00;;;;;;5085502;28;19915;-87
2021/12/21 08:54:45;;;;;;;;;;;2.20;1.00;;;;;;5078839;28;19913;-87
2021/12/21 08:57:10;;;;;;;;;;;2.10;1.00;;;;;;5079092;28;19927;-86
2021/12/21 08:59:36;;;;;;;;;;;2.00;1.00;;;;;;5080599;28;20392;-85
2021/12/21 09:02:01;;;;;;;;;;;1.90;1.00;;;;;;5062026;28;19912;-86
2021/12/21 09:04:27;;;;;;;;;;;1.90;1.00;;;;;;5073286;28;19959;-86
2021/12/21 09:06:53;;;;;;;;;;;1.90;1.00;;;;;;5055165;28;19916;-88
2021/12/21 09:09:19;;;;;;;;;;;1.90;1.00;;;;;;5073438;28;19916;-84
2021/12/21 09:11:45;;;;;;;;;;;1.90;1.00;;;;;;5090032;28;19915;-84
2021/12/21 09:14:12;;;;;;;;;;;1.90;1.00;;;;;;5073227;28;19983;-84
2021/12/21 09:16:37;;;;;;;;;;;1.80;1.90;;;;;;5071529;28;19923;-83
2021/12/21 09:19:03;;;;;;;;;;;1.80;18.60;;;;;;5052302;28;19916;-84
2021/12/21 09:21:29;;;;;;;;;;;1.80;45.90;;;;;;5067115;28;19970;-84
2021/12/21 09:23:54;;;;;;;;;;;1.80;69.90;;;;;;5069345;28;19954;-85
2021/12/21 09:26:20;;;;;;;;;;;1.90;92.40;;;;;;5075322;28;20010;-83
2021/12/21 09:28:45;;;;;;;;;;;1.90;96.30;;;;;;5075180;28;19912;-84
2021/12/21 09:31:11;;;;;;;;;;;1.90;92.80;;;;;;5075713;28;19919;-84
2021/12/21 09:33:36;;;;;;;;;;;2.00;86.60;;;;;;5073641;28;19973;-85
2021/12/21 09:36:02;;;;;;;;;;;1.90;59.20;;;;;;5072254;28;19912;-82
2021/12/21 09:38:27;;;;;;;;;;;2.00;48.90;;;;;;5060018;28;19923;-83
2021/12/21 09:40:54;;;;;;;;;;;2.00;31.50;;;;;;5065898;28;20002;-84
2021/12/21 09:43:20;;;;;;;;;;;2.00;25.20;;;;;;5090221;28;19912;-83
2021/12/21 09:45:46;;;;;;;;;;;2.00;30.00;;;;;;5055126;28;20465;-82
2021/12/21 09:48:11;;;;;;;;;;;2.10;31.90;;;;;;5067448;28;19913;-83
2021/12/21 09:50:37;;;;;;;;;;;2.20;33.10;;;;;;5077251;28;20004;-83
2021/12/21 09:53:02;;;;;;;;;;;2.30;33.70;;;;;;5083336;28;20376;-85
2021/12/21 09:55:29;;;;;;;;;;;2.30;22.40;;;;;;5074617;28;19917;-84
2021/12/21 09:57:55;;;;;;;;;;;2.40;8.10;;;;;;5069707;28;19916;-83
2021/12/21 10:00:22;;;;;;;;;;;2.40;1.00;;;;;;5072284;28;20444;-83
2021/12/21 10:02:48;;;;;;;;;;;2.50;1.00;;;;;;5061181;28;20402;-84
2021/12/21 10:05:16;;;;;;;;;;;2.60;1.00;;;;;;5072044;28;19999;-84
2021/12/21 10:07:42;;;;;;;;;;;2.70;1.00;;;;;;5078387;28;19912;-84
2021/12/21 10:10:12;;;;;;;;;;;2.70;1.00;;;;;;5077778;28;20396;-84
2021/12/21 10:12:39;;;;;;;;;;;2.70;1.00;;;;;;5073323;28;19912;-84
2021/12/21 10:15:06;;;;;;;;;;;2.60;1.00;;;;;;5074361;28;19913;-84
2021/12/21 10:17:33;;;;;;;;;;;2.60;1.00;;;;;;5095594;28;19928;-84
2021/12/21 10:19:59;;;;;;;;;;;2.70;1.00;;;;;;5068361;28;19999;-84
2021/12/21 10:22:25;;;;;;;;;;;2.80;1.00;;;;;;5074747;28;19916;-84
2021/12/21 10:24:51;;;;;;;;;;;2.80;1.00;;;;;;5053362;28;19962;-83
2021/12/21 10:27:18;;;;;;;;;;;2.90;1.00;;;;;;5075963;28;19913;-84
2021/12/21 10:29:48;;;;;;;;;;;3.00;1.00;;;;;;5075925;28;19913;-84
2021/12/21 10:32:21;;;;;;;;;;;3.00;1.00;;;;;;5092264;28;19955;-84
2021/12/21 10:34:54;;;;;;;;;;;3.10;1.00;;;;;;5073634;28;20227;-85
2021/12/21 10:37:23;;;;;;;;;;;3.10;1.00;;;;;;5070155;28;19917;-85
2021/12/21 10:39:49;;;;;;;;;;;3.20;1.00;;;;;;5077324;28;19912;-83
2021/12/21 10:42:14;;;;;;;;;;;3.20;1.00;;;;;;5077841;28;19940;-85
2021/12/21 10:44:44;;;;;;;;;;;3.20;1.00;;;;;;5070979;28;19944;-83
2021/12/21 10:47:11;;;;;;;;;;;3.30;1.00;;;;;;5070754;28;19919;-84
2021/12/21 10:49:39;;;;;;;;;;;3.30;1.00;;;;;;5066233;28;19913;-83
2021/12/21 10:52:09;;;;;;;;;;;3.40;1.00;;;;;;5067743;28;20288;-83
2021/12/21 10:54:42;;;;;;;;;;;3.40;1.00;;;;;;5065644;28;19917;-84
2021/12/21 10:57:10;;;;;;;;;;;3.50;1.00;;;;;;5077510;28;19924;-84
2021/12/21 10:59:37;;;;;;;;;;;3.50;1.00;;;;;;5089143;28;19923;-83
2021/12/21 11:02:05;;;;;;;;;;;3.60;1.00;;;;;;5073422;28;19919;-84
2021/12/21 11:04:35;;;;;;;;;;;3.70;1.00;;;;;;5064490;28;19995;-84
2021/12/21 11:07:25;;;;;;;;;;;3.80;1.00;;;;;;5073608;28;19912;-84
2021/12/21 11:09:58;;;;;;;;;;;3.80;1.00;;;;;;5082417;28;19913;-83
2021/12/21 11:12:28;;;;;;;;;;;3.90;1.00;;;;;;5076706;28;19919;-84
2021/12/21 11:14:55;;;;;;;;;;;3.90;1.00;;;;;;5047793;28;20002;-84
2021/12/21 11:17:21;;;;;;;;;;;3.90;1.00;;;;;;5059032;28;19917;-83
2021/12/21 11:19:46;;;;;;;;;;;3.80;1.00;;;;;;5051042;28;19912;-83
2021/12/21 11:22:12;;;;;;;;;;;3.70;1.00;;;;;;5070454;28;20407;-85
2021/12/21 11:24:39;;;;;;;;;;;3.60;1.00;;;;;;5065837;28;19912;-83
2021/12/21 11:27:04;;;;;;;;;;;3.60;1.00;;;;;;5076748;28;19913;-84
2021/12/21 11:29:30;;;;;;;;;;;3.90;1.00;;;;;;5079175;28;19908;-84
2021/12/21 11:31:57;;;;;;;;;;;4.80;1.00;;;;;;5068975;28;19991;-85
2021/12/21 11:34:31;;;;;;;;;;;6.20;1.00;;;;;;5070477;28;19920;-87
2021/12/21 11:39:41;;;;;;;;;;;8.80;1.00;;;;;;5073732;28;19919;-86
2021/12/21 11:42:10;;;;;;;;;;;9.70;1.00;;;;;;5081392;28;19912;-86
2021/12/21 11:44:41;;;;;;;;;;;10.70;1.00;;;;;;5071983;28;20361;-86
2021/12/21 11:47:08;;;;;;;;;;;11.20;1.00;;;;;;5104647;28;19995;-83
2021/12/21 11:49:40;;;;;;;;;;;11.60;1.00;;;;;;5073924;28;19913;-84
2021/12/21 11:52:09;;;;;;;;;;;11.90;1.00;;;;;;5073485;28;19920;-85
2021/12/21 11:54:42;;;;;;;;;;;11.90;1.00;;;;;;5064628;28;20383;-84
2021/12/21 11:57:07;;;;;;;;;;;12.30;1.00;;;;;;5077019;28;19923;-84
2021/12/21 11:59:33;;;;;;;;;;;12.40;1.00;;;;;;5071706;28;19909;-84
2021/12/21 12:02:01;;;;;;;;;;;12.80;1.00;;;;;;5071048;28;19973;-84
2021/12/21 12:04:27;;;;;;;;;;;13.20;1.00;;;;;;5068775;28;19909;-84
2021/12/21 12:06:53;;;;;;;;;;;13.70;1.00;;;;;;5069782;28;19912;-84
2021/12/21 12:09:32;;;;;;;;;;;14.00;1.00;;;;;;5087868;28;19970;-84
2021/12/21 12:12:08;;;;;;;;;;;13.60;1.00;;;;;;5073997;28;19923;-84
2021/12/21 12:14:36;;;;;;;;;;;13.60;1.00;;;;;;5072338;28;20590;-83
2021/12/21 12:17:05;;;;;;;;;;;13.50;1.00;;;;;;5063809;28;19917;-83
2021/12/21 12:19:32;;;;;;;;;;;13.20;1.00;;;;;;5088268;28;19913;-83
2021/12/21 12:21:59;;;;;;;;;;;13.50;1.00;;;;;;5074460;28;19941;-84
2021/12/21 12:24:26;;;;;;;;;;;13.80;99.90;;;;;;5072203;28;20011;-84
2021/12/21 12:26:57;;;;;;;;;;;13.70;99.90;;;;;;5085902;28;19912;-84
2021/12/21 12:29:22;;;;;;;;;;;14.20;99.90;;;;;;5069492;28;19974;-83
2021/12/21 12:32:05;;;;;;;;;;;14.10;99.90;;;;;;5069664;28;19924;-84
2021/12/21 12:34:32;;;;;;;;;;;14.10;99.90;;;;;;5069753;28;20365;-84
2021/12/21 12:36:58;;;;;;;;;;;13.90;99.90;;;;;;5097275;28;19912;-83
2021/12/21 12:39:33;;;;;;;;;;;13.70;99.90;;;;;;5087673;28;19912;-84
2021/12/21 12:42:03;;;;;;;;;;;13.80;99.90;;;;;;5075184;28;19927;-83
2021/12/21 12:44:29;;;;;;;;;;;13.70;99.90;;;;;;5071447;28;19928;-84
2021/12/21 12:46:56;;;;;;;;;;;14.00;99.90;;;;;;5071620;28;20449;-84
2021/12/21 12:49:23;;;;;;;;;;;14.30;99.90;;;;;;5072615;28;19912;-86
2021/12/21 12:51:48;;;;;;;;;;;14.30;99.90;;;;;;5073661;28;19934;-83
2021/12/21 12:54:15;;;;;;;;;;;13.80;99.90;;;;;;5069999;28;19912;-83
2021/12/21 12:56:41;;;;;;;;;;;13.60;99.90;;;;;;5076177;28;19978;-86
2021/12/21 12:59:06;;;;;;;;;;;13.30;99.90;;;;;;5072837;28;19912;-86
2021/12/21 13:01:53;;;;;;;;;;;13.10;99.90;;;;;;5078975;28;20387;-86
2021/12/21 13:04:19;;;;;;;;;;;12.90;99.90;;;;;;5042950;28;20018;-86
2021/12/21 13:06:51;;;;;;;;;;;12.60;99.90;;;;;;5059804;28;20380;-83
2021/12/21 13:09:18;;;;;;;;;;;12.70;99.90;;;;;;5079103;28;19959;-83
2021/12/21 13:11:43;;;;;;;;;;;12.40;99.90;;;;;;5078341;28;19967;-83
2021/12/21 13:14:10;;;;;;;;;;;12.30;99.90;;;;;;5078424;28;19917;-83
2021/12/21 13:16:36;;;;;;;;;;;12.20;99.90;;;;;;5092794;28;19927;-83
2021/12/21 13:19:06;;;;;;;;;;;12.00;99.90;;;;;;5066062;28;19912;-83
2021/12/21 13:21:34;;;;;;;;;;;12.10;99.90;;;;;;5076981;28;19944;-83
2021/12/21 13:24:01;;;;;;;;;;;11.90;99.90;;;;;;5079587;28;19915;-84
2021/12/21 13:26:34;;;;;;;;;;;11.80;99.90;;;;;;5078315;28;19990;-83
2021/12/21 13:29:00;;;;;;;;;;;11.70;99.90;;;;;;5104638;28;19913;-83
2021/12/21 13:31:26;;;;;;;;;;;11.70;99.90;;;;;;5066692;28;19935;-83
2021/12/21 13:33:53;;;;;;;;;;;11.90;99.90;;;;;;5082183;28;19908;-85
2021/12/21 13:36:18;;;;;;;;;;;12.00;99.90;;;;;;5077141;28;19916;-85
2021/12/21 13:38:44;;;;;;;;;;;12.10;99.90;;;;;;5079132;28;19920;-83
2021/12/21 13:41:11;;;;;;;;;;;12.10;99.90;;;;;;5088494;28;20271;-83
2021/12/21 13:43:38;;;;;;;;;;;11.80;99.90;;;;;;5075994;28;20507;-84
2021/12/21 13:46:06;;;;;;;;;;;11.60;99.90;;;;;;5079780;28;19917;-83
2021/12/21 13:48:32;;;;;;;;;;;11.40;99.90;;;;;;5076273;28;19912;-83
2021/12/21 13:51:08;;;;;;;;;;;11.10;99.90;;;;;;5078526;28;19976;-83
2021/12/21 13:53:39;;;;;;;;;;;10.90;99.90;;;;;;5073598;28;20479;-83
2021/12/21 13:56:09;;;;;;;;;;;10.80;99.90;;;;;;5080290;28;19916;-83
2021/12/21 13:58:35;;;;;;;;;;;10.80;99.90;;;;;;5075916;28;19924;-83
2021/12/21 14:01:01;;;;;;;;;;;10.50;99.90;;;;;;5060902;28;19912;-83
2021/12/21 14:06:00;;;;;;;;;;;10.30;99.90;;;;;;5076826;28;19944;-83
2021/12/21 14:08:26;;;;;;;;;;;10.30;99.90;;;;;;5057920;28;19909;-83
2021/12/21 14:10:53;;;;;;;;;;;10.20;99.90;;;;;;5052186;28;19917;-83
2021/12/21 14:13:26;;;;;;;;;;;10.20;99.90;;;;;;5074076;28;19963;-83
2021/12/21 14:15:51;;;;;;;;;;;10.00;99.90;;;;;;5063180;28;19967;-83
2021/12/21 14:18:21;;;;;;;;;;;9.80;99.90;;;;;;5071842;28;19951;-84
2021/12/21 14:20:47;;;;;;;;;;;9.60;99.90;;;;;;5074264;28;19916;-83
2021/12/21 14:23:17;;;;;;;;;;;9.70;99.90;;;;;;5075130;28;19920;-84
2021/12/21 14:25:42;;;;;;;;;;;9.60;99.90;;;;;;5078136;28;19919;-83
2021/12/21 14:28:08;;;;;;;;;;;9.50;99.90;;;;;;5072132;28;21640;-83
2021/12/21 14:30:34;;;;;;;;;;;9.30;99.90;;;;;;5069342;28;19962;-84
2021/12/21 14:33:22;;;;;;;;;;;9.30;99.90;;;;;;5077868;28;19913;-84
2021/12/21 14:35:47;;;;;;;;;;;9.20;99.90;;;;;;5072679;28;19912;-84
2021/12/21 14:38:15;;;;;;;;;;;9.20;99.90;;;;;;5079816;28;19927;-84
2021/12/21 14:40:43;;;;;;;;;;;9.10;99.90;;;;;;5086427;28;19935;-85
2021/12/21 14:43:21;;;;;;;;;;;9.10;99.90;;;;;;5083071;28;19912;-85
2021/12/21 14:45:47;;;;;;;;;;;9.00;99.90;;;;;;5079056;28;19912;-85
2021/12/21 14:48:17;;;;;;;;;;;8.90;99.90;;;;;;5097828;28;19940;-84
2021/12/21 14:50:48;;;;;;;;;;;8.80;99.90;;;;;;5080401;28;19912;-84
2021/12/21 14:53:20;;;;;;;;;;;8.70;99.90;;;;;;5064233;28;19909;-85
2021/12/21 14:55:46;;;;;;;;;;;8.50;99.90;;;;;;5066431;28;19947;-85
2021/12/21 14:58:15;;;;;;;;;;;8.10;99.90;;;;;;5082497;28;19920;-84
2021/12/21 15:00:42;;;;;;;;;;;7.80;99.90;;;;;;5076924;28;19971;-83
2021/12/21 15:03:09;;;;;;;;;;;7.50;99.90;;;;;;5080570;28;19963;-86
2021/12/21 15:05:36;;;;;;;;;;;7.20;99.90;;;;;;5080495;28;20365;-84
2021/12/21 15:08:03;;;;;;;;;;;7.00;99.90;;;;;;5090998;28;19924;-84
2021/12/21 15:10:30;;;;;;;;;;;6.70;99.90;;;;;;5078590;28;19912;-85
2021/12/21 15:12:56;;;;;;;;;;;6.40;99.90;;;;;;5080652;28;19913;-84
2021/12/21 15:15:22;;;;;;;;;;;6.20;99.90;;;;;;5078687;28;20381;-84
2021/12/21 15:17:49;;;;;;;;;;;6.00;99.90;;;;;;5072957;28;20018;-84
2021/12/21 15:20:15;;;;;;;;;;;5.90;99.90;;;;;;5079144;28;19919;-84
2021/12/21 15:22:41;;;;;;;;;;;5.80;99.90;;;;;;5075274;28;19913;-84
2021/12/21 15:25:08;;;;;;;;;;;5.70;99.90;;;;;;5077434;28;20008;-83
2021/12/21 15:27:34;;;;;;;;;;;5.60;99.90;;;;;;5071150;28;19916;-83
2021/12/21 15:30:00;;;;;;;;;;;5.60;99.90;;;;;;5073706;28;19913;-85
2021/12/21 15:32:26;;;;;;;;;;;5.50;99.90;;;;;;5077911;28;19908;-85
2021/12/21 15:34:51;;;;;;;;;;;5.50;99.90;;;;;;5078799;28;19920;-85
2021/12/21 15:37:17;;;;;;;;;;;5.40;99.90;;;;;;5082348;28;19945;-84
2021/12/21 15:39:42;;;;;;;;;;;5.40;99.90;;;;;;5079908;28;19943;-84
2021/12/21 15:42:16;;;;;;;;;;;5.30;99.90;;;;;;5057171;28;19921;-84